createdAt,value
2022-12-15T00:02:35.513Z,71.18
2022-12-15T00:05:22.482Z,73.32
2022-12-15T00:08:08.758Z,70.95
2022-12-15T00:10:54.265Z,69.72
2022-12-15T00:13:40.148Z,64.43
2022-12-15T00:16:26.070Z,67.45
2022-12-15T00:19:12.403Z,67.43
2022-12-15T00:21:57.703Z,68.05
2022-12-15T00:24:43.408Z,62.45
2022-12-15T00:27:28.848Z,62.53
2022-12-15T00:30:14.546Z,67.05
2022-12-15T00:33:00.041Z,67.13
2022-12-15T00:35:45.944Z,65.90
2022-12-15T00:38:33.696Z,64.47
2022-12-15T00:41:02.146Z,73.53
2022-12-15T00:43:34.921Z,66.10
2022-12-15T00:46:22.565Z,65.68
2022-12-15T00:48:50.438Z,70.80
2022-12-15T00:51:18.692Z,66.03
2022-12-15T00:54:05.135Z,68.10
2022-12-15T00:56:51.812Z,64.15
2022-12-15T00:59:37.298Z,70.38
2022-12-15T01:02:23.038Z,65.47
2022-12-15T01:05:08.571Z,67.80
2022-12-15T01:07:54.214Z,76.97
2022-12-15T01:10:39.685Z,73.05
2022-12-15T01:13:25.513Z,71.05
2022-12-15T01:16:11.251Z,69.82
2022-12-15T01:18:56.888Z,78.97
2022-12-15T01:21:25.493Z,69.03
2022-12-15T01:23:53.740Z,70.32
2022-12-15T01:26:20.752Z,70.78
2022-12-15T01:28:47.941Z,75.00
2022-12-15T01:31:15.867Z,73.72
2022-12-15T01:33:43.776Z,80.43
2022-12-15T01:36:11.684Z,79.50
2022-12-15T01:38:38.826Z,79.57
2022-12-15T01:41:11.960Z,74.05
2022-12-15T01:43:40.968Z,73.03
2022-12-15T01:46:24.603Z,81.10
2022-12-15T01:49:02.810Z,74.80
2022-12-15T01:51:39.670Z,75.43
2022-12-15T01:54:15.420Z,76.97
2022-12-15T01:56:49.578Z,78.15
2022-12-15T01:59:28.765Z,78.20
2022-12-15T02:01:55.817Z,82.85
2022-12-15T02:04:24.433Z,76.53
2022-12-15T02:06:53.132Z,79.00
2022-12-15T02:09:24.349Z,72.45
2022-12-15T02:12:12.643Z,77.15
2022-12-15T02:15:05.142Z,77.13
2022-12-15T02:18:09.018Z,73.80
2022-12-15T02:20:58.632Z,71.97
2022-12-15T02:24:13.300Z,72.45
2022-12-15T02:27:11.167Z,73.50
2022-12-15T02:30:27.954Z,72.38
2022-12-15T02:33:11.423Z,68.30
2022-12-15T02:36:26.085Z,63.95
2022-12-15T02:38:53.159Z,81.47
2022-12-15T02:41:41.564Z,76.78
2022-12-15T02:44:35.380Z,75.00
2022-12-15T02:47:37.289Z,76.25
2022-12-15T02:50:45.053Z,77.38
2022-12-15T02:54:15.597Z,67.88
2022-12-15T02:57:26.905Z,71.47
2022-12-15T03:00:06.281Z,68.50
2022-12-15T03:02:38.140Z,75.18
2022-12-15T03:05:06.543Z,66.85
2022-12-15T03:07:33.671Z,70.07
2022-12-15T03:10:04.701Z,76.40
2022-12-15T03:12:31.966Z,80.47
2022-12-15T03:14:58.968Z,82.15
2022-12-15T03:17:26.050Z,80.68
2022-12-15T03:19:52.958Z,72.93
2022-12-15T03:22:20.406Z,74.00
2022-12-15T03:24:48.358Z,75.00
2022-12-15T03:27:15.610Z,81.45
2022-12-15T03:29:42.530Z,76.53
2022-12-15T03:32:09.747Z,72.45
2022-12-15T03:34:36.676Z,75.25
2022-12-15T03:37:03.740Z,73.75
2022-12-15T03:39:30.595Z,77.00
2022-12-15T03:41:57.909Z,69.03
2022-12-15T03:44:24.854Z,74.00
2022-12-15T03:46:52.075Z,67.53
2022-12-15T03:49:18.994Z,73.47
2022-12-15T03:51:46.069Z,71.00
2022-12-15T03:54:14.170Z,70.50
2022-12-15T03:56:41.252Z,76.55
2022-12-15T03:59:08.082Z,72.95
2022-12-15T04:01:36.809Z,79.38
2022-12-15T04:04:05.120Z,70.32
2022-12-15T04:06:32.431Z,74.95
2022-12-15T04:08:59.358Z,70.50
2022-12-15T04:11:26.453Z,79.05
2022-12-15T04:13:53.403Z,74.97
2022-12-15T04:16:20.734Z,74.80
2022-12-15T04:19:08.234Z,71.35
2022-12-15T04:21:35.314Z,67.63
2022-12-15T04:24:21.048Z,70.55
2022-12-15T04:27:06.752Z,67.03
2022-12-15T04:29:52.080Z,76.28
2022-12-15T04:32:37.714Z,74.53
2022-12-15T04:35:24.169Z,71.03
2022-12-15T04:38:11.315Z,71.35
2022-12-15T04:40:57.266Z,71.88
2022-12-15T04:43:43.651Z,65.55
2022-12-15T04:46:29.000Z,66.32
2022-12-15T04:49:14.666Z,67.15
2022-12-15T04:52:00.115Z,69.90
2022-12-15T04:54:46.013Z,63.40
2022-12-15T04:57:31.470Z,63.83
2022-12-15T05:00:17.127Z,71.50
2022-12-15T05:03:02.428Z,67.15
2022-12-15T05:05:48.053Z,62.20
2022-12-15T05:08:33.325Z,69.57
2022-12-15T05:11:19.578Z,67.88
2022-12-15T05:14:05.007Z,64.10
2022-12-15T05:16:50.817Z,67.07
2022-12-15T05:19:36.693Z,69.88
2022-12-15T05:22:22.298Z,71.80
2022-12-15T05:25:07.644Z,73.93
2022-12-15T05:27:53.165Z,69.70
2022-12-15T05:30:38.617Z,71.35
2022-12-15T05:33:06.209Z,72.45
2022-12-15T05:35:33.094Z,69.05
2022-12-15T05:38:00.365Z,74.80
2022-12-15T05:40:27.277Z,71.55
2022-12-15T05:42:59.366Z,73.18
2022-12-15T05:45:27.919Z,66.97
2022-12-15T05:47:55.629Z,69.40
2022-12-15T05:50:23.680Z,67.93
2022-12-15T05:52:51.199Z,70.55
2022-12-15T05:55:19.388Z,65.93
2022-12-15T05:57:54.259Z,68.55
2022-12-15T06:00:22.136Z,66.72
2022-12-15T06:02:50.072Z,66.10
2022-12-15T06:05:17.442Z,67.35
2022-12-15T06:07:44.639Z,73.22
2022-12-15T06:10:11.876Z,67.47
2022-12-15T06:12:38.952Z,62.42
2022-12-15T06:15:06.421Z,71.50
2022-12-15T06:17:33.654Z,65.18
2022-12-15T06:20:00.523Z,67.45
2022-12-15T06:22:29.851Z,69.50
2022-12-15T06:24:56.867Z,69.40
2022-12-15T06:27:24.379Z,72.03
2022-12-15T06:29:51.350Z,71.25
2022-12-15T06:32:18.505Z,67.50
2022-12-15T06:34:45.510Z,66.00
2022-12-15T06:37:12.911Z,69.20
2022-12-15T06:39:39.809Z,65.25
2022-12-15T06:42:06.898Z,69.57
2022-12-15T06:44:33.858Z,64.25
2022-12-15T06:47:01.114Z,73.25
2022-12-15T06:49:28.174Z,73.22
2022-12-15T06:51:55.317Z,65.72
2022-12-15T06:54:22.340Z,67.65
2022-12-15T06:56:49.948Z,62.03
2022-12-15T06:59:17.266Z,67.90
2022-12-15T07:01:44.718Z,62.03
2022-12-15T07:04:12.175Z,71.50
2022-12-15T07:06:40.638Z,69.60
2022-12-15T07:09:16.115Z,67.68
2022-12-15T07:11:43.985Z,73.13
2022-12-15T07:14:11.071Z,65.20
2022-12-15T07:16:38.277Z,67.30
2022-12-15T07:19:05.217Z,63.63
2022-12-15T07:21:32.607Z,63.90
2022-12-15T07:24:01.273Z,62.83
2022-12-15T07:26:29.153Z,67.97
2022-12-15T07:28:56.612Z,70.63
2022-12-15T07:31:24.100Z,67.90
2022-12-15T07:33:52.617Z,66.10
2022-12-15T07:36:20.708Z,68.20
2022-12-15T07:38:50.545Z,66.40
2022-12-15T07:41:20.278Z,61.33
2022-12-15T07:43:48.072Z,68.18
2022-12-15T07:46:16.392Z,70.65
2022-12-15T07:48:43.742Z,63.67
2022-12-15T07:51:18.796Z,68.07
2022-12-15T07:53:49.822Z,73.00
2022-12-15T07:56:18.714Z,67.15
2022-12-15T07:58:45.989Z,59.10
2022-12-15T08:01:15.649Z,70.57
2022-12-15T08:03:43.006Z,64.10
2022-12-15T08:06:14.238Z,74.03
2022-12-15T08:08:41.904Z,69.00
2022-12-15T08:11:13.594Z,75.15
2022-12-15T08:16:30.299Z,69.93
2022-12-15T08:18:57.364Z,68.53
2022-12-15T08:21:24.824Z,67.57
2022-12-15T08:23:51.830Z,68.35
2022-12-15T08:26:22.603Z,70.13
2022-12-15T08:28:54.156Z,77.75
2022-12-15T08:31:24.056Z,74.20
2022-12-15T08:33:51.696Z,74.05
2022-12-15T08:36:19.448Z,77.40
2022-12-15T08:38:47.667Z,74.35
2022-12-15T08:41:23.042Z,72.28
2022-12-15T08:43:51.753Z,82.85
2022-12-15T08:46:31.895Z,72.35
2022-12-15T08:48:58.885Z,76.72
2022-12-15T08:51:29.934Z,78.57
2022-12-15T08:53:58.708Z,78.53
2022-12-15T08:56:27.930Z,76.35
2022-12-15T08:59:01.065Z,85.00
2022-12-15T09:01:32.334Z,77.05
2022-12-15T09:04:01.449Z,70.82
2022-12-15T09:06:33.062Z,70.93
2022-12-15T09:09:04.560Z,68.30
2022-12-15T09:11:32.255Z,71.65
2022-12-15T09:13:59.327Z,72.97
2022-12-15T09:16:27.877Z,74.53
2022-12-15T09:18:58.852Z,79.07
2022-12-15T09:21:29.101Z,72.53
2022-12-15T09:24:01.808Z,80.18
2022-12-15T09:26:33.333Z,74.43
2022-12-15T09:29:02.136Z,68.80
2022-12-15T09:31:36.467Z,76.45
2022-12-15T09:34:03.875Z,66.68
2022-12-15T09:36:35.253Z,70.32
2022-12-15T09:39:03.046Z,62.85
2022-12-15T09:41:34.849Z,64.70
2022-12-15T09:44:06.813Z,63.53
2022-12-15T09:47:09.404Z,64.72
2022-12-15T09:49:57.159Z,65.95
2022-12-15T09:52:44.762Z,58.90
2022-12-15T09:55:32.761Z,66.05
2022-12-15T09:58:16.416Z,68.75
2022-12-15T10:00:55.870Z,65.53
2022-12-15T10:03:56.195Z,71.65
2022-12-15T10:06:42.816Z,63.25
2022-12-15T10:09:22.500Z,61.70
2022-12-15T10:12:22.521Z,69.20
2022-12-15T10:15:16.499Z,70.45
2022-12-15T10:18:03.146Z,63.78
2022-12-15T10:20:33.459Z,67.82
2022-12-15T10:23:13.898Z,65.28
2022-12-15T10:25:51.505Z,73.57
2022-12-15T10:28:58.414Z,69.97
2022-12-15T10:31:58.143Z,62.67
2022-12-15T10:34:34.593Z,63.50
2022-12-15T10:37:03.254Z,71.68
2022-12-15T10:39:43.768Z,61.95
2022-12-15T10:42:24.248Z,61.58
2022-12-15T10:44:56.777Z,71.85
2022-12-15T10:47:32.420Z,66.28
2022-12-15T10:50:24.976Z,68.95
2022-12-15T10:52:52.542Z,65.45
2022-12-15T10:55:41.429Z,67.40
2022-12-15T10:58:21.583Z,62.75
2022-12-15T11:01:06.616Z,66.80
2022-12-15T11:06:18.348Z,74.00
2022-12-15T11:08:47.434Z,69.40
2022-12-15T11:11:53.190Z,62.92
2022-12-15T11:14:29.419Z,63.88
2022-12-15T11:16:59.204Z,66.10
2022-12-15T11:19:44.416Z,65.88
2022-12-15T11:22:52.298Z,65.55
2022-12-15T11:25:33.640Z,64.63
2022-12-15T11:28:11.373Z,75.65
2022-12-15T11:31:25.560Z,65.88
2022-12-15T11:33:55.849Z,57.30
2022-12-15T11:37:16.162Z,51.92
2022-12-15T11:40:13.342Z,57.08
2022-12-15T11:43:03.122Z,56.60
2022-12-15T11:45:39.338Z,61.33
2022-12-15T11:48:33.487Z,62.33
2022-12-15T11:51:10.415Z,66.80
2022-12-15T11:53:58.312Z,63.33
2022-12-15T11:57:16.241Z,62.70
2022-12-15T11:59:52.099Z,66.15
2022-12-15T12:02:59.033Z,64.97
2022-12-15T12:05:31.934Z,69.82
2022-12-15T12:08:47.054Z,63.47
2022-12-15T12:11:38.904Z,63.28
2022-12-15T12:14:38.057Z,56.58
2022-12-15T12:17:41.501Z,68.90
2022-12-15T12:20:20.479Z,68.97
2022-12-15T12:23:05.165Z,71.10
2022-12-15T12:25:45.309Z,68.18
2022-12-15T12:28:36.639Z,67.38
2022-12-15T12:31:11.303Z,72.30
2022-12-15T12:33:50.629Z,73.70
2022-12-15T12:36:17.547Z,67.47
2022-12-15T12:38:53.440Z,73.30
2022-12-15T12:41:50.937Z,73.88
2022-12-15T12:44:36.532Z,82.57
2022-12-15T12:47:23.471Z,88.68
2022-12-15T12:50:06.872Z,86.30
2022-12-15T12:52:37.875Z,96.20
2022-12-15T12:55:29.004Z,95.65
2022-12-15T12:57:56.448Z,91.90
2022-12-15T13:00:32.635Z,93.82
2022-12-15T13:03:12.467Z,96.57
2022-12-15T13:05:42.519Z,93.78
2022-12-15T13:08:09.385Z,99.65
2022-12-15T13:10:43.378Z,99.43
2022-12-15T13:13:32.656Z,92.30
2022-12-15T13:16:11.815Z,104.68
2022-12-15T13:19:06.979Z,100.65
2022-12-15T13:21:41.613Z,98.13
2022-12-15T13:24:30.385Z,95.13
2022-12-15T13:27:14.168Z,98.07
2022-12-15T13:30:09.494Z,106.10
2022-12-15T13:32:41.868Z,98.40
2022-12-15T13:35:14.877Z,106.40
2022-12-15T13:38:03.160Z,104.10
2022-12-15T13:40:35.835Z,101.57
2022-12-15T13:43:05.811Z,105.55
2022-12-15T13:45:56.104Z,94.18
2022-12-15T13:48:49.379Z,96.97
2022-12-15T13:51:34.610Z,91.07
2022-12-15T13:54:24.197Z,99.65
2022-12-15T13:57:14.698Z,98.60
2022-12-15T13:59:50.641Z,94.53
2022-12-15T14:02:36.658Z,100.15
2022-12-15T14:05:21.808Z,101.43
2022-12-15T14:07:54.953Z,93.35
2022-12-15T14:10:41.838Z,96.55
2022-12-15T14:13:22.067Z,98.78
2022-12-15T14:15:56.099Z,101.07
2022-12-15T14:18:31.976Z,97.95
2022-12-15T14:21:01.310Z,100.45
2022-12-15T14:24:19.148Z,96.50
2022-12-15T14:26:32.428Z,97.55
2022-12-15T14:29:03.288Z,98.03
2022-12-15T14:31:31.383Z,93.15
2022-12-15T14:34:35.794Z,95.78
2022-12-15T14:37:11.125Z,93.95
2022-12-15T14:39:50.306Z,88.85
2022-12-15T14:42:23.688Z,86.05
2022-12-15T14:44:57.713Z,86.55
2022-12-15T14:47:35.994Z,90.72
2022-12-15T14:50:09.892Z,90.20
2022-12-15T14:52:44.227Z,70.95
2022-12-15T14:55:37.206Z,90.47
2022-12-15T14:58:36.060Z,91.45
2022-12-15T15:01:21.385Z,96.28
2022-12-15T15:06:34.552Z,98.90
2022-12-15T15:09:31.361Z,102.10
2022-12-15T15:12:26.512Z,90.75
2022-12-15T15:15:04.630Z,98.13
2022-12-15T15:17:54.958Z,110.45
2022-12-15T15:20:37.848Z,107.95
2022-12-15T15:23:04.577Z,100.65
2022-12-15T15:25:51.219Z,116.45
2022-12-15T15:28:18.146Z,111.55
2022-12-15T15:30:49.927Z,122.22
2022-12-15T15:33:19.413Z,121.68
2022-12-15T15:35:57.052Z,107.85
2022-12-15T15:38:32.316Z,119.53
2022-12-15T15:41:11.617Z,116.75
2022-12-15T15:43:38.459Z,114.40
2022-12-15T15:46:11.677Z,124.07
2022-12-15T15:48:53.668Z,121.30
2022-12-15T15:51:21.828Z,121.97
2022-12-15T15:53:48.790Z,123.18
2022-12-15T15:56:17.484Z,122.05
2022-12-15T15:58:44.727Z,126.97
2022-12-15T16:01:13.487Z,127.15
2022-12-15T16:03:41.873Z,115.07
2022-12-15T16:06:18.369Z,124.13
2022-12-15T16:08:48.980Z,136.18
2022-12-15T16:11:16.395Z,131.45
2022-12-15T16:13:43.250Z,122.88
2022-12-15T16:16:25.019Z,134.25
2022-12-15T16:18:51.906Z,120.28
2022-12-15T16:21:22.864Z,124.72
2022-12-15T16:23:50.991Z,121.40
2022-12-15T16:26:30.039Z,119.15
2022-12-15T16:28:57.593Z,131.32
2022-12-15T16:31:42.042Z,126.28
2022-12-15T16:34:09.578Z,125.00
2022-12-15T16:36:36.899Z,120.75
2022-12-15T16:39:04.463Z,117.25
2022-12-15T16:41:33.237Z,128.23
2022-12-15T16:44:00.120Z,124.68
2022-12-15T16:46:27.223Z,122.32
2022-12-15T16:48:54.737Z,129.55
2022-12-15T16:51:37.194Z,126.15
2022-12-15T16:54:04.923Z,121.60
2022-12-15T16:56:33.066Z,114.20
2022-12-15T16:59:30.821Z,118.05
2022-12-15T17:01:48.119Z,118.78
2022-12-15T17:04:16.682Z,115.82
2022-12-15T17:06:43.970Z,110.25
2022-12-15T17:09:22.226Z,115.97
2022-12-15T17:11:50.643Z,119.68
2022-12-15T17:14:17.862Z,122.20
2022-12-15T17:16:45.058Z,117.20
2022-12-15T17:19:16.170Z,130.75
2022-12-15T17:21:52.876Z,123.75
2022-12-15T17:24:22.435Z,107.03
2022-12-15T17:26:50.966Z,121.18
2022-12-15T17:29:23.402Z,118.40
2022-12-15T17:31:51.190Z,121.28
2022-12-15T17:34:32.098Z,118.47
2022-12-15T17:37:06.379Z,126.95
2022-12-15T17:39:35.327Z,102.70
2022-12-15T17:42:03.303Z,132.93
2022-12-15T17:44:37.922Z,117.55
2022-12-15T17:47:08.970Z,127.60
2022-12-15T17:49:38.049Z,110.15
2022-12-15T17:52:34.472Z,118.00
2022-12-15T17:57:33.358Z,124.03
2022-12-15T18:00:02.003Z,122.35
2022-12-15T18:02:29.604Z,121.65
2022-12-15T18:04:56.966Z,114.35
2022-12-15T18:07:24.923Z,108.78
2022-12-15T18:09:53.210Z,114.63
2022-12-15T18:12:25.266Z,119.30
2022-12-15T18:14:52.622Z,126.88
2022-12-15T18:17:20.421Z,111.72
2022-12-15T18:19:47.789Z,115.57
2022-12-15T18:22:22.559Z,123.38
2022-12-15T18:27:25.481Z,121.05
2022-12-15T18:29:53.160Z,119.55
2022-12-15T18:32:27.870Z,114.35
2022-12-15T18:34:55.870Z,111.50
2022-12-15T18:37:28.270Z,111.68
2022-12-15T18:39:59.508Z,111.45
2022-12-15T18:42:31.240Z,112.68
2022-12-15T18:45:00.409Z,107.05
2022-12-15T18:47:27.827Z,114.88
2022-12-15T18:49:54.967Z,108.45
2022-12-15T18:52:27.637Z,107.72
2022-12-15T18:57:36.400Z,107.60
2022-12-15T19:00:20.064Z,103.45
2022-12-15T19:02:48.690Z,107.32
2022-12-15T19:05:33.829Z,105.85
2022-12-15T19:10:53.667Z,99.88
2022-12-15T19:13:25.313Z,101.15
2022-12-15T19:15:53.356Z,98.38
2022-12-15T19:18:42.531Z,110.95
2022-12-15T19:21:39.678Z,107.57
2022-12-15T19:24:11.326Z,99.63
2022-12-15T19:26:40.311Z,115.85
2022-12-15T19:29:22.069Z,107.25
2022-12-15T19:31:49.749Z,100.47
2022-12-15T19:34:17.331Z,100.60
2022-12-15T19:36:44.342Z,103.55
2022-12-15T19:39:24.444Z,94.32
2022-12-15T19:41:51.550Z,107.57
2022-12-15T19:44:19.047Z,113.10
2022-12-15T19:46:46.033Z,117.72
2022-12-15T19:49:14.407Z,112.95
2022-12-15T19:51:41.868Z,108.82
2022-12-15T19:54:17.889Z,115.05
2022-12-15T19:56:44.765Z,121.60
2022-12-15T19:59:24.264Z,108.53
2022-12-15T20:01:51.803Z,110.55
2022-12-15T20:04:24.108Z,104.45
2022-12-15T20:06:51.476Z,112.85
2022-12-15T20:09:19.387Z,103.55
2022-12-15T20:11:46.523Z,94.85
2022-12-15T20:14:19.958Z,97.78
2022-12-15T20:16:47.130Z,105.28
2022-12-15T20:19:14.632Z,98.45
2022-12-15T20:21:42.253Z,133.30
2022-12-15T20:24:18.727Z,97.55
2022-12-15T20:26:46.921Z,94.00
2022-12-15T20:29:29.350Z,98.55
2022-12-15T20:31:58.567Z,95.15
2022-12-15T20:34:25.775Z,97.32
2022-12-15T20:36:52.964Z,92.22
2022-12-15T20:39:26.055Z,94.93
2022-12-15T20:41:54.548Z,94.13
2022-12-15T20:44:23.073Z,90.13
2022-12-15T20:46:50.915Z,83.60
2022-12-15T20:49:21.822Z,93.65
2022-12-15T20:51:49.311Z,94.43
2022-12-15T20:54:22.577Z,92.60
2022-12-15T20:56:50.246Z,103.28
2022-12-15T20:59:18.045Z,92.43
2022-12-15T21:01:46.484Z,100.00
2022-12-15T21:04:27.589Z,90.95
2022-12-15T21:07:00.116Z,99.30
2022-12-15T21:09:29.624Z,91.63
2022-12-15T21:11:56.726Z,90.63
2022-12-15T21:14:24.359Z,95.38
2022-12-15T21:16:51.400Z,92.40
2022-12-15T21:19:21.199Z,88.75
2022-12-15T21:21:54.981Z,90.35
2022-12-15T21:24:28.931Z,94.82
2022-12-15T21:26:56.342Z,82.82
2022-12-15T21:29:27.734Z,83.95
2022-12-15T21:31:54.772Z,91.32
2022-12-15T21:34:22.134Z,85.13
2022-12-15T21:36:55.337Z,97.40
2022-12-15T21:39:29.778Z,94.80
2022-12-15T21:42:21.191Z,84.18
2022-12-15T21:44:48.933Z,85.88
2022-12-15T21:47:52.133Z,91.00
2022-12-15T21:50:20.094Z,93.00
2022-12-15T21:52:48.288Z,96.03
2022-12-15T21:55:19.100Z,94.95
2022-12-15T21:57:46.072Z,97.65
2022-12-15T22:00:18.718Z,89.60
2022-12-15T22:02:48.520Z,93.35
2022-12-15T22:05:22.117Z,97.75
2022-12-15T22:07:51.590Z,93.30
2022-12-15T22:10:19.355Z,95.93
2022-12-15T22:12:58.937Z,84.45
2022-12-15T22:15:29.418Z,91.90
2022-12-15T22:17:56.267Z,94.03
2022-12-15T22:20:24.962Z,93.18
2022-12-15T22:22:51.811Z,97.97
2022-12-15T22:25:24.012Z,102.38
2022-12-15T22:27:52.494Z,95.07
2022-12-15T22:30:27.607Z,97.85
2022-12-15T22:32:54.588Z,93.30
2022-12-15T22:35:26.603Z,98.65
2022-12-15T22:37:53.983Z,89.10
2022-12-15T22:40:23.683Z,90.53
2022-12-15T22:42:57.640Z,105.70
2022-12-15T22:45:25.193Z,95.10
2022-12-15T22:47:53.562Z,95.10
2022-12-15T22:50:26.288Z,95.05
2022-12-15T22:52:53.154Z,93.35
2022-12-15T22:55:24.789Z,96.28
2022-12-15T22:58:01.349Z,89.47
2022-12-15T23:00:28.635Z,92.72
2022-12-15T23:05:25.841Z,83.05
2022-12-15T23:07:53.369Z,95.55
2022-12-15T23:10:40.815Z,87.75
2022-12-15T23:13:07.817Z,87.20
2022-12-15T23:15:54.695Z,93.65
2022-12-15T23:18:21.885Z,91.00
2022-12-15T23:20:49.143Z,91.60
2022-12-15T23:23:16.032Z,84.60
2022-12-15T23:25:44.243Z,79.15
2022-12-15T23:28:11.085Z,88.30
2022-12-15T23:30:38.304Z,86.25
2022-12-15T23:33:05.506Z,93.90
2022-12-15T23:35:32.628Z,92.50
2022-12-15T23:37:59.633Z,80.45
2022-12-15T23:40:26.749Z,90.70
2022-12-15T23:42:53.782Z,91.95
2022-12-15T23:45:21.155Z,87.82
2022-12-15T23:47:48.141Z,81.35
2022-12-15T23:50:15.354Z,91.38
2022-12-15T23:52:42.227Z,89.25
2022-12-15T23:55:10.232Z,84.63
2022-12-15T23:57:39.380Z,75.82
